sensor_id;sensor_type;location;lat;lon;timestamp;temperature;humidity
38941;DHT22;43236;47.208;7.518;2023-04-22T00:04:13;9.00;99.90
38941;DHT22;43236;47.208;7.518;2023-04-22T00:07:01;9.30;99.90
38941;DHT22;43236;47.208;7.518;2023-04-22T00:09:48;9.10;99.90
38941;DHT22;43236;47.208;7.518;2023-04-22T00:12:35;9.40;99.90
38941;DHT22;43236;47.208;7.518;2023-04-22T00:15:22;6.30;99.90
38941;DHT22;43236;47.208;7.518;2023-04-22T00:18:11;9.30;99.90
38941;DHT22;43236;47.208;7.518;2023-04-22T00:20:58;9.00;99.90
38941;DHT22;43236;47.208;7.518;2023-04-22T00:23:46;8.80;99.90
38941;DHT22;43236;47.208;7.518;2023-04-22T00:26:33;8.90;99.90
38941;DHT22;43236;47.208;7.518;2023-04-22T00:29:20;8.60;99.90
38941;DHT22;43236;47.208;7.518;2023-04-22T00:32:07;6.40;99.90
38941;DHT22;43236;47.208;7.518;2023-04-22T00:34:54;9.30;99.90
38941;DHT22;43236;47.208;7.518;2023-04-22T00:37:42;8.90;99.90
38941;DHT22;43236;47.208;7.518;2023-04-22T00:43:17;8.40;99.90
38941;DHT22;43236;47.208;7.518;2023-04-22T00:46:04;8.80;99.90
38941;DHT22;43236;47.208;7.518;2023-04-22T00:51:38;8.40;99.90
38941;DHT22;43236;47.208;7.518;2023-04-22T00:54:25;8.90;99.90
38941;DHT22;43236;47.208;7.518;2023-04-22T01:00:02;8.80;99.90
38941;DHT22;43236;47.208;7.518;2023-04-22T01:05:36;8.70;99.90
38941;DHT22;43236;47.208;7.518;2023-04-22T01:16:46;8.60;99.90
38941;DHT22;43236;47.208;7.518;2023-04-22T01:19:34;8.90;99.90
38941;DHT22;43236;47.208;7.518;2023-04-22T01:22:22;9.20;99.90
38941;DHT22;43236;47.208;7.518;2023-04-22T01:25:11;8.70;99.90
38941;DHT22;43236;47.208;7.518;2023-04-22T01:27:58;6.00;99.90
38941;DHT22;43236;47.208;7.518;2023-04-22T01:30:45;7.30;99.90
38941;DHT22;43236;47.208;7.518;2023-04-22T01:33:34;9.00;99.90
38941;DHT22;43236;47.208;7.518;2023-04-22T01:36:21;6.30;99.90
38941;DHT22;43236;47.208;7.518;2023-04-22T01:39:08;8.80;99.90
38941;DHT22;43236;47.208;7.518;2023-04-22T01:41:56;9.00;99.90
38941;DHT22;43236;47.208;7.518;2023-04-22T01:44:43;9.10;99.90
38941;DHT22;43236;47.208;7.518;2023-04-22T01:47:30;8.00;99.90
38941;DHT22;43236;47.208;7.518;2023-04-22T01:53:04;9.10;99.90
38941;DHT22;43236;47.208;7.518;2023-04-22T01:58:41;9.40;99.90
38941;DHT22;43236;47.208;7.518;2023-04-22T02:01:28;8.10;99.90
38941;DHT22;43236;47.208;7.518;2023-04-22T02:04:15;9.30;99.90
38941;DHT22;43236;47.208;7.518;2023-04-22T02:07:01;7.80;99.90
38941;DHT22;43236;47.208;7.518;2023-04-22T02:09:48;9.20;99.90
38941;DHT22;43236;47.208;7.518;2023-04-22T02:12:35;8.60;99.90
38941;DHT22;43236;47.208;7.518;2023-04-22T02:15:23;8.50;99.90
38941;DHT22;43236;47.208;7.518;2023-04-22T02:18:10;9.10;99.90
38941;DHT22;43236;47.208;7.518;2023-04-22T02:20:57;8.90;99.90
38941;DHT22;43236;47.208;7.518;2023-04-22T02:23:44;8.90;99.90
38941;DHT22;43236;47.208;7.518;2023-04-22T02:29:18;7.70;99.90
38941;DHT22;43236;47.208;7.518;2023-04-22T02:32:07;8.90;99.90
38941;DHT22;43236;47.208;7.518;2023-04-22T02:34:54;9.40;99.90
38941;DHT22;43236;47.208;7.518;2023-04-22T02:37:41;9.30;99.90
38941;DHT22;43236;47.208;7.518;2023-04-22T02:40:28;6.50;99.90
38941;DHT22;43236;47.208;7.518;2023-04-22T02:43:15;8.80;99.90
38941;DHT22;43236;47.208;7.518;2023-04-22T02:48:50;7.80;99.90
38941;DHT22;43236;47.208;7.518;2023-04-22T02:51:37;8.90;99.90
38941;DHT22;43236;47.208;7.518;2023-04-22T02:54:24;8.70;99.90
38941;DHT22;43236;47.208;7.518;2023-04-22T02:57:11;8.60;99.90
38941;DHT22;43236;47.208;7.518;2023-04-22T03:05:34;6.50;99.90
38941;DHT22;43236;47.208;7.518;2023-04-22T03:08:21;9.20;99.90
38941;DHT22;43236;47.208;7.518;2023-04-22T03:13:55;9.10;99.90
38941;DHT22;43236;47.208;7.518;2023-04-22T03:19:29;9.20;99.90
38941;DHT22;43236;47.208;7.518;2023-04-22T03:22:17;9.50;99.90
38941;DHT22;43236;47.208;7.518;2023-04-22T03:27:52;9.40;99.90
38941;DHT22;43236;47.208;7.518;2023-04-22T03:30:38;9.50;99.90
38941;DHT22;43236;47.208;7.518;2023-04-22T03:33:25;8.90;99.90
38941;DHT22;43236;47.208;7.518;2023-04-22T03:36:12;7.60;99.90
38941;DHT22;43236;47.208;7.518;2023-04-22T03:39:01;6.50;99.90
38941;DHT22;43236;47.208;7.518;2023-04-22T03:41:48;9.30;99.90
38941;DHT22;43236;47.208;7.518;2023-04-22T03:44:35;6.40;99.90
38941;DHT22;43236;47.208;7.518;2023-04-22T03:47:22;9.50;99.90
38941;DHT22;43236;47.208;7.518;2023-04-22T03:50:09;9.00;99.90
38941;DHT22;43236;47.208;7.518;2023-04-22T03:52:56;9.10;99.90
38941;DHT22;43236;47.208;7.518;2023-04-22T03:55:44;9.10;99.90
38941;DHT22;43236;47.208;7.518;2023-04-22T03:58:31;9.40;99.90
38941;DHT22;43236;47.208;7.518;2023-04-22T04:04:05;9.10;99.90
38941;DHT22;43236;47.208;7.518;2023-04-22T04:09:39;9.20;99.90
38941;DHT22;43236;47.208;7.518;2023-04-22T04:12:28;9.50;99.90
38941;DHT22;43236;47.208;7.518;2023-04-22T04:15:15;9.20;99.90
38941;DHT22;43236;47.208;7.518;2023-04-22T04:18:03;6.70;99.90
38941;DHT22;43236;47.208;7.518;2023-04-22T04:20:50;9.40;99.90
38941;DHT22;43236;47.208;7.518;2023-04-22T04:23:37;7.80;99.90
38941;DHT22;43236;47.208;7.518;2023-04-22T04:26:24;9.30;99.90
38941;DHT22;43236;47.208;7.518;2023-04-22T04:29:13;9.60;99.90
38941;DHT22;43236;47.208;7.518;2023-04-22T04:32:00;8.10;99.90
38941;DHT22;43236;47.208;7.518;2023-04-22T04:34:47;9.70;99.90
38941;DHT22;43236;47.208;7.518;2023-04-22T04:43:13;8.60;99.90
38941;DHT22;43236;47.208;7.518;2023-04-22T04:46:02;9.40;99.90
38941;DHT22;43236;47.208;7.518;2023-04-22T04:48:48;9.00;99.90
38941;DHT22;43236;47.208;7.518;2023-04-22T04:51:36;8.00;99.90
38941;DHT22;43236;47.208;7.518;2023-04-22T04:54:23;9.60;99.90
38941;DHT22;43236;47.208;7.518;2023-04-22T04:57:10;9.20;99.90
38941;DHT22;43236;47.208;7.518;2023-04-22T04:59:56;9.60;99.90
38941;DHT22;43236;47.208;7.518;2023-04-22T05:02:45;6.50;99.90
38941;DHT22;43236;47.208;7.518;2023-04-22T05:05:31;7.50;99.90
38941;DHT22;43236;47.208;7.518;2023-04-22T05:08:19;9.50;99.90
38941;DHT22;43236;47.208;7.518;2023-04-22T05:13:53;9.20;99.90
38941;DHT22;43236;47.208;7.518;2023-04-22T05:16:40;9.10;99.90
38941;DHT22;43236;47.208;7.518;2023-04-22T05:19:28;9.70;99.90
38941;DHT22;43236;47.208;7.518;2023-04-22T05:22:15;9.60;99.90
38941;DHT22;43236;47.208;7.518;2023-04-22T05:25:03;6.70;99.90
38941;DHT22;43236;47.208;7.518;2023-04-22T05:30:37;9.60;99.90
38941;DHT22;43236;47.208;7.518;2023-04-22T05:36:12;9.10;99.90
38941;DHT22;43236;47.208;7.518;2023-04-22T05:41:46;9.20;99.90
38941;DHT22;43236;47.208;7.518;2023-04-22T05:44:34;9.40;99.90
38941;DHT22;43236;47.208;7.518;2023-04-22T05:47:20;9.00;99.90
38941;DHT22;43236;47.208;7.518;2023-04-22T05:50:07;9.30;99.90
38941;DHT22;43236;47.208;7.518;2023-04-22T05:58:30;6.70;99.90
38941;DHT22;43236;47.208;7.518;2023-04-22T06:01:17;9.60;99.90
38941;DHT22;43236;47.208;7.518;2023-04-22T06:04:04;9.30;99.90
38941;DHT22;43236;47.208;7.518;2023-04-22T06:06:51;9.90;99.90
38941;DHT22;43236;47.208;7.518;2023-04-22T06:09:39;9.40;99.90
38941;DHT22;43236;47.208;7.518;2023-04-22T06:12:25;9.70;99.90
38941;DHT22;43236;47.208;7.518;2023-04-22T06:15:14;9.80;99.90
38941;DHT22;43236;47.208;7.518;2023-04-22T06:18:01;8.70;99.90
38941;DHT22;43236;47.208;7.518;2023-04-22T06:20:47;9.40;99.90
38941;DHT22;43236;47.208;7.518;2023-04-22T06:26:22;9.80;99.90
38941;DHT22;43236;47.208;7.518;2023-04-22T06:29:09;9.30;99.90
38941;DHT22;43236;47.208;7.518;2023-04-22T06:31:57;9.40;99.90
38941;DHT22;43236;47.208;7.518;2023-04-22T06:34:44;9.40;99.90
38941;DHT22;43236;47.208;7.518;2023-04-22T06:37:31;9.30;99.90
38941;DHT22;43236;47.208;7.518;2023-04-22T06:43:05;9.90;99.90
38941;DHT22;43236;47.208;7.518;2023-04-22T06:45:52;9.60;99.90
38941;DHT22;43236;47.208;7.518;2023-04-22T06:48:40;9.60;99.90
38941;DHT22;43236;47.208;7.518;2023-04-22T06:51:27;10.10;99.90
38941;DHT22;43236;47.208;7.518;2023-04-22T06:57:01;10.30;99.90
38941;DHT22;43236;47.208;7.518;2023-04-22T06:59:48;9.70;99.90
38941;DHT22;43236;47.208;7.518;2023-04-22T07:02:35;9.80;99.90
38941;DHT22;43236;47.208;7.518;2023-04-22T07:05:24;9.90;99.90
38941;DHT22;43236;47.208;7.518;2023-04-22T07:10:58;10.20;99.90
38941;DHT22;43236;47.208;7.518;2023-04-22T07:13:44;10.00;99.90
38941;DHT22;43236;47.208;7.518;2023-04-22T07:16:31;10.60;99.90
38941;DHT22;43236;47.208;7.518;2023-04-22T07:19:19;10.50;99.90
38941;DHT22;43236;47.208;7.518;2023-04-22T07:24:55;10.00;99.90
38941;DHT22;43236;47.208;7.518;2023-04-22T07:27:41;10.00;99.90
38941;DHT22;43236;47.208;7.518;2023-04-22T07:30:28;9.90;99.90
38941;DHT22;43236;47.208;7.518;2023-04-22T07:33:15;10.20;99.90
38941;DHT22;43236;47.208;7.518;2023-04-22T07:36:02;10.70;99.90
38941;DHT22;43236;47.208;7.518;2023-04-22T07:38:49;10.00;99.90
38941;DHT22;43236;47.208;7.518;2023-04-22T07:44:25;10.10;99.90
38941;DHT22;43236;47.208;7.518;2023-04-22T07:47:12;10.20;99.90
38941;DHT22;43236;47.208;7.518;2023-04-22T07:49:58;10.60;99.90
38941;DHT22;43236;47.208;7.518;2023-04-22T07:52:45;10.50;99.90
38941;DHT22;43236;47.208;7.518;2023-04-22T07:55:32;10.90;99.90
38941;DHT22;43236;47.208;7.518;2023-04-22T07:58:19;10.80;99.90
38941;DHT22;43236;47.208;7.518;2023-04-22T08:01:07;11.20;99.90
38941;DHT22;43236;47.208;7.518;2023-04-22T08:03:54;11.30;99.90
38941;DHT22;43236;47.208;7.518;2023-04-22T08:06:41;11.50;99.90
38941;DHT22;43236;47.208;7.518;2023-04-22T08:09:28;11.60;99.90
38941;DHT22;43236;47.208;7.518;2023-04-22T08:12:15;12.30;99.90
38941;DHT22;43236;47.208;7.518;2023-04-22T08:17:50;11.80;99.90
38941;DHT22;43236;47.208;7.518;2023-04-22T08:20:37;11.80;99.90
38941;DHT22;43236;47.208;7.518;2023-04-22T08:23:24;13.50;99.90
38941;DHT22;43236;47.208;7.518;2023-04-22T08:26:11;11.80;99.90
38941;DHT22;43236;47.208;7.518;2023-04-22T08:28:59;11.70;99.90
38941;DHT22;43236;47.208;7.518;2023-04-22T08:31:46;11.60;99.90
38941;DHT22;43236;47.208;7.518;2023-04-22T08:34:35;11.90;99.90
38941;DHT22;43236;47.208;7.518;2023-04-22T08:37:21;11.80;99.90
38941;DHT22;43236;47.208;7.518;2023-04-22T08:40:08;11.50;99.90
38941;DHT22;43236;47.208;7.518;2023-04-22T08:42:56;11.80;99.90
38941;DHT22;43236;47.208;7.518;2023-04-22T08:45:43;11.90;99.90
38941;DHT22;43236;47.208;7.518;2023-04-22T08:48:30;13.80;99.90
38941;DHT22;43236;47.208;7.518;2023-04-22T08:51:19;12.30;99.90
38941;DHT22;43236;47.208;7.518;2023-04-22T08:54:07;14.30;99.90
38941;DHT22;43236;47.208;7.518;2023-04-22T08:56:54;12.40;99.90
38941;DHT22;43236;47.208;7.518;2023-04-22T08:59:40;14.20;99.90
38941;DHT22;43236;47.208;7.518;2023-04-22T09:05:15;15.60;99.90
38941;DHT22;43236;47.208;7.518;2023-04-22T09:08:03;15.60;99.90
38941;DHT22;43236;47.208;7.518;2023-04-22T09:10:52;12.80;99.90
38941;DHT22;43236;47.208;7.518;2023-04-22T09:13:39;12.90;99.90
38941;DHT22;43236;47.208;7.518;2023-04-22T09:16:28;14.40;99.90
38941;DHT22;43236;47.208;7.518;2023-04-22T09:19:15;12.80;99.90
38941;DHT22;43236;47.208;7.518;2023-04-22T09:22:02;13.90;99.90
38941;DHT22;43236;47.208;7.518;2023-04-22T09:27:37;12.70;99.90
38941;DHT22;43236;47.208;7.518;2023-04-22T09:30:25;12.60;99.90
38941;DHT22;43236;47.208;7.518;2023-04-22T09:33:12;12.90;99.90
38941;DHT22;43236;47.208;7.518;2023-04-22T09:35:59;14.00;99.90
38941;DHT22;43236;47.208;7.518;2023-04-22T09:38:54;15.30;99.90
38941;DHT22;43236;47.208;7.518;2023-04-22T09:41:41;12.50;99.90
38941;DHT22;43236;47.208;7.518;2023-04-22T09:44:30;15.30;99.90
38941;DHT22;43236;47.208;7.518;2023-04-22T09:47:20;12.70;99.90
38941;DHT22;43236;47.208;7.518;2023-04-22T09:50:08;16.50;99.90
38941;DHT22;43236;47.208;7.518;2023-04-22T09:52:56;13.10;99.90
38941;DHT22;43236;47.208;7.518;2023-04-22T09:55:43;13.70;99.90
38941;DHT22;43236;47.208;7.518;2023-04-22T09:58:30;13.30;99.90
38941;DHT22;43236;47.208;7.518;2023-04-22T10:01:19;16.50;99.90
38941;DHT22;43236;47.208;7.518;2023-04-22T10:04:06;19.10;99.90
38941;DHT22;43236;47.208;7.518;2023-04-22T10:06:54;19.00;99.90
38941;DHT22;43236;47.208;7.518;2023-04-22T10:09:41;16.60;99.90
38941;DHT22;43236;47.208;7.518;2023-04-22T10:12:28;18.50;99.90
38941;DHT22;43236;47.208;7.518;2023-04-22T10:15:15;16.80;99.90
38941;DHT22;43236;47.208;7.518;2023-04-22T10:18:04;17.50;99.90
38941;DHT22;43236;47.208;7.518;2023-04-22T10:20:52;19.00;99.90
38941;DHT22;43236;47.208;7.518;2023-04-22T10:23:44;17.00;99.90
38941;DHT22;43236;47.208;7.518;2023-04-22T10:26:37;18.20;99.90
38941;DHT22;43236;47.208;7.518;2023-04-22T10:29:25;19.50;99.90
38941;DHT22;43236;47.208;7.518;2023-04-22T10:35:08;19.40;99.90
38941;DHT22;43236;47.208;7.518;2023-04-22T10:37:55;18.00;99.90
38941;DHT22;43236;47.208;7.518;2023-04-22T10:40:57;18.30;99.20
38941;DHT22;43236;47.208;7.518;2023-04-22T10:43:44;20.10;99.90
38941;DHT22;43236;47.208;7.518;2023-04-22T10:49:37;20.50;98.30
38941;DHT22;43236;47.208;7.518;2023-04-22T10:52:29;18.30;97.10
38941;DHT22;43236;47.208;7.518;2023-04-22T10:55:16;20.20;98.20
38941;DHT22;43236;47.208;7.518;2023-04-22T10:58:02;17.50;96.90
38941;DHT22;43236;47.208;7.518;2023-04-22T11:01:04;18.30;96.90
38941;DHT22;43236;47.208;7.518;2023-04-22T11:07:14;18.80;97.80
38941;DHT22;43236;47.208;7.518;2023-04-22T11:10:07;20.10;98.50
38941;DHT22;43236;47.208;7.518;2023-04-22T11:13:03;17.90;97.70
38941;DHT22;43236;47.208;7.518;2023-04-22T11:15:53;18.30;97.40
38941;DHT22;43236;47.208;7.518;2023-04-22T11:18:40;20.10;98.20
38941;DHT22;43236;47.208;7.518;2023-04-22T11:21:27;17.70;96.20
38941;DHT22;43236;47.208;7.518;2023-04-22T11:24:16;17.70;95.60
38941;DHT22;43236;47.208;7.518;2023-04-22T11:27:06;18.60;94.90
38941;DHT22;43236;47.208;7.518;2023-04-22T11:29:59;18.80;95.50
38941;DHT22;43236;47.208;7.518;2023-04-22T11:32:47;19.10;95.60
38941;DHT22;43236;47.208;7.518;2023-04-22T11:35:34;17.70;94.90
38941;DHT22;43236;47.208;7.518;2023-04-22T11:38:21;18.60;95.00
38941;DHT22;43236;47.208;7.518;2023-04-22T11:41:07;17.60;95.40
38941;DHT22;43236;47.208;7.518;2023-04-22T11:43:56;19.00;96.40
38941;DHT22;43236;47.208;7.518;2023-04-22T11:46:43;18.70;95.20
38941;DHT22;43236;47.208;7.518;2023-04-22T11:49:29;19.70;96.40
38941;DHT22;43236;47.208;7.518;2023-04-22T11:52:17;18.90;95.80
38941;DHT22;43236;47.208;7.518;2023-04-22T11:55:04;19.30;95.50
38941;DHT22;43236;47.208;7.518;2023-04-22T11:57:52;18.70;95.20
38941;DHT22;43236;47.208;7.518;2023-04-22T12:06:15;18.70;94.80
38941;DHT22;43236;47.208;7.518;2023-04-22T12:09:02;18.90;95.50
38941;DHT22;43236;47.208;7.518;2023-04-22T12:14:36;18.90;95.10
38941;DHT22;43236;47.208;7.518;2023-04-22T12:17:23;17.70;94.70
38941;DHT22;43236;47.208;7.518;2023-04-22T12:20:10;19.00;95.30
38941;DHT22;43236;47.208;7.518;2023-04-22T12:23:01;18.00;93.90
38941;DHT22;43236;47.208;7.518;2023-04-22T12:25:48;18.80;94.40
38941;DHT22;43236;47.208;7.518;2023-04-22T12:28:35;17.70;93.60
38941;DHT22;43236;47.208;7.518;2023-04-22T12:31:22;19.10;94.80
38941;DHT22;43236;47.208;7.518;2023-04-22T12:34:09;18.20;94.70
38941;DHT22;43236;47.208;7.518;2023-04-22T12:36:56;19.80;95.20
38941;DHT22;43236;47.208;7.518;2023-04-22T12:39:44;17.90;93.30
38941;DHT22;43236;47.208;7.518;2023-04-22T12:45:19;19.60;94.10
38941;DHT22;43236;47.208;7.518;2023-04-22T12:48:07;17.60;92.80
38941;DHT22;43236;47.208;7.518;2023-04-22T12:50:54;20.20;94.20
38941;DHT22;43236;47.208;7.518;2023-04-22T12:56:30;17.70;93.40
38941;DHT22;43236;47.208;7.518;2023-04-22T13:02:04;18.40;95.70
38941;DHT22;43236;47.208;7.518;2023-04-22T13:07:39;17.40;97.20
38941;DHT22;43236;47.208;7.518;2023-04-22T13:10:26;17.90;98.20
38941;DHT22;43236;47.208;7.518;2023-04-22T13:16:03;17.30;97.70
38941;DHT22;43236;47.208;7.518;2023-04-22T13:21:37;20.60;98.70
38941;DHT22;43236;47.208;7.518;2023-04-22T13:24:24;18.00;97.60
38941;DHT22;43236;47.208;7.518;2023-04-22T13:27:11;18.10;98.30
38941;DHT22;43236;47.208;7.518;2023-04-22T13:29:58;17.20;97.20
38941;DHT22;43236;47.208;7.518;2023-04-22T13:35:34;18.30;98.00
38941;DHT22;43236;47.208;7.518;2023-04-22T13:38:21;18.40;98.50
38941;DHT22;43236;47.208;7.518;2023-04-22T13:41:08;19.30;98.80
38941;DHT22;43236;47.208;7.518;2023-04-22T13:43:56;16.60;98.00
38941;DHT22;43236;47.208;7.518;2023-04-22T13:46:44;18.80;99.30
38941;DHT22;43236;47.208;7.518;2023-04-22T13:49:31;19.60;99.90
38941;DHT22;43236;47.208;7.518;2023-04-22T13:52:20;20.10;99.90
38941;DHT22;43236;47.208;7.518;2023-04-22T13:55:07;17.70;99.10
38941;DHT22;43236;47.208;7.518;2023-04-22T13:57:55;17.00;98.90
38941;DHT22;43236;47.208;7.518;2023-04-22T14:00:41;19.30;99.90
38941;DHT22;43236;47.208;7.518;2023-04-22T14:03:28;17.00;99.90
38941;DHT22;43236;47.208;7.518;2023-04-22T14:06:16;18.70;99.90
38941;DHT22;43236;47.208;7.518;2023-04-22T14:09:05;18.30;99.90
38941;DHT22;43236;47.208;7.518;2023-04-22T14:11:52;18.50;99.90
38941;DHT22;43236;47.208;7.518;2023-04-22T14:14:39;19.70;99.90
38941;DHT22;43236;47.208;7.518;2023-04-22T14:23:00;19.80;99.90
38941;DHT22;43236;47.208;7.518;2023-04-22T14:25:51;18.50;99.90
38941;DHT22;43236;47.208;7.518;2023-04-22T14:28:38;17.80;99.90
38941;DHT22;43236;47.208;7.518;2023-04-22T14:31:27;19.00;99.90
38941;DHT22;43236;47.208;7.518;2023-04-22T14:34:14;18.00;99.90
38941;DHT22;43236;47.208;7.518;2023-04-22T14:37:01;17.80;99.90
38941;DHT22;43236;47.208;7.518;2023-04-22T14:39:48;18.20;99.90
38941;DHT22;43236;47.208;7.518;2023-04-22T14:42:36;19.40;99.90
38941;DHT22;43236;47.208;7.518;2023-04-22T14:45:23;19.30;99.90
38941;DHT22;43236;47.208;7.518;2023-04-22T14:48:10;19.80;99.90
38941;DHT22;43236;47.208;7.518;2023-04-22T14:50:57;19.70;99.90
38941;DHT22;43236;47.208;7.518;2023-04-22T14:53:44;17.70;99.90
38941;DHT22;43236;47.208;7.518;2023-04-22T14:56:31;17.70;99.90
38941;DHT22;43236;47.208;7.518;2023-04-22T14:59:20;19.70;99.90
38941;DHT22;43236;47.208;7.518;2023-04-22T15:02:07;18.40;99.90
38941;DHT22;43236;47.208;7.518;2023-04-22T15:05:00;17.60;99.90
38941;DHT22;43236;47.208;7.518;2023-04-22T15:07:47;17.50;99.90
38941;DHT22;43236;47.208;7.518;2023-04-22T15:10:33;18.50;99.90
38941;DHT22;43236;47.208;7.518;2023-04-22T15:13:20;19.80;99.90
38941;DHT22;43236;47.208;7.518;2023-04-22T15:16:09;17.40;99.90
38941;DHT22;43236;47.208;7.518;2023-04-22T15:18:56;18.30;99.90
38941;DHT22;43236;47.208;7.518;2023-04-22T15:21:43;19.10;99.90
38941;DHT22;43236;47.208;7.518;2023-04-22T15:24:31;19.50;99.90
38941;DHT22;43236;47.208;7.518;2023-04-22T15:27:18;17.80;99.90
38941;DHT22;43236;47.208;7.518;2023-04-22T15:30:05;17.50;99.90
38941;DHT22;43236;47.208;7.518;2023-04-22T15:32:54;17.50;99.90
38941;DHT22;43236;47.208;7.518;2023-04-22T15:35:41;17.80;99.90
38941;DHT22;43236;47.208;7.518;2023-04-22T15:38:30;17.80;99.90
38941;DHT22;43236;47.208;7.518;2023-04-22T15:41:16;17.40;99.90
38941;DHT22;43236;47.208;7.518;2023-04-22T15:44:03;17.90;99.90
38941;DHT22;43236;47.208;7.518;2023-04-22T15:46:50;17.50;99.90
38941;DHT22;43236;47.208;7.518;2023-04-22T15:49:39;19.40;99.90
38941;DHT22;43236;47.208;7.518;2023-04-22T15:52:25;17.70;99.90
38941;DHT22;43236;47.208;7.518;2023-04-22T15:57:59;16.90;99.90
38941;DHT22;43236;47.208;7.518;2023-04-22T16:00:47;19.20;99.90
38941;DHT22;43236;47.208;7.518;2023-04-22T16:03:34;19.80;99.90
38941;DHT22;43236;47.208;7.518;2023-04-22T16:06:22;20.00;99.90
38941;DHT22;43236;47.208;7.518;2023-04-22T16:09:09;19.00;99.90
38941;DHT22;43236;47.208;7.518;2023-04-22T16:11:56;18.10;99.90
38941;DHT22;43236;47.208;7.518;2023-04-22T16:14:44;17.90;99.90
38941;DHT22;43236;47.208;7.518;2023-04-22T16:17:30;17.70;99.90
38941;DHT22;43236;47.208;7.518;2023-04-22T16:20:17;19.70;99.90
38941;DHT22;43236;47.208;7.518;2023-04-22T16:23:05;17.90;99.90
38941;DHT22;43236;47.208;7.518;2023-04-22T16:25:52;18.10;99.90
38941;DHT22;43236;47.208;7.518;2023-04-22T16:28:39;20.10;99.90
38941;DHT22;43236;47.208;7.518;2023-04-22T16:34:13;20.20;99.90
38941;DHT22;43236;47.208;7.518;2023-04-22T16:37:01;17.90;99.90
38941;DHT22;43236;47.208;7.518;2023-04-22T16:39:49;18.00;99.90
38941;DHT22;43236;47.208;7.518;2023-04-22T16:42:36;16.70;99.90
38941;DHT22;43236;47.208;7.518;2023-04-22T16:48:10;19.30;99.90
38941;DHT22;43236;47.208;7.518;2023-04-22T16:50:57;19.90;99.90
38941;DHT22;43236;47.208;7.518;2023-04-22T16:53:44;17.50;99.90
38941;DHT22;43236;47.208;7.518;2023-04-22T16:56:32;20.00;99.90
38941;DHT22;43236;47.208;7.518;2023-04-22T16:59:19;18.10;99.90
38941;DHT22;43236;47.208;7.518;2023-04-22T17:02:07;18.20;99.90
38941;DHT22;43236;47.208;7.518;2023-04-22T17:04:54;19.60;99.90
38941;DHT22;43236;47.208;7.518;2023-04-22T17:07:40;17.60;99.90
38941;DHT22;43236;47.208;7.518;2023-04-22T17:10:27;19.60;99.90
38941;DHT22;43236;47.208;7.518;2023-04-22T17:13:16;17.40;99.90
38941;DHT22;43236;47.208;7.518;2023-04-22T17:16:03;17.40;99.90
38941;DHT22;43236;47.208;7.518;2023-04-22T17:21:37;17.50;99.90
38941;DHT22;43236;47.208;7.518;2023-04-22T17:24:24;18.20;99.90
38941;DHT22;43236;47.208;7.518;2023-04-22T17:27:10;17.50;99.90
38941;DHT22;43236;47.208;7.518;2023-04-22T17:30:01;17.40;99.90
38941;DHT22;43236;47.208;7.518;2023-04-22T17:32:48;19.30;99.90
38941;DHT22;43236;47.208;7.518;2023-04-22T17:35:35;18.70;99.90
38941;DHT22;43236;47.208;7.518;2023-04-22T17:38:22;18.70;99.90
38941;DHT22;43236;47.208;7.518;2023-04-22T17:41:09;16.80;99.90
38941;DHT22;43236;47.208;7.518;2023-04-22T17:43:55;18.30;99.90
38941;DHT22;43236;47.208;7.518;2023-04-22T17:46:44;17.80;99.90
38941;DHT22;43236;47.208;7.518;2023-04-22T17:52:18;17.20;99.90
38941;DHT22;43236;47.208;7.518;2023-04-22T17:55:05;18.90;99.90
38941;DHT22;43236;47.208;7.518;2023-04-22T17:57:52;17.50;99.90
38941;DHT22;43236;47.208;7.518;2023-04-22T18:00:39;19.10;99.90
38941;DHT22;43236;47.208;7.518;2023-04-22T18:03:27;17.40;99.90
38941;DHT22;43236;47.208;7.518;2023-04-22T18:06:14;16.30;99.90
38941;DHT22;43236;47.208;7.518;2023-04-22T18:09:01;17.00;99.90
38941;DHT22;43236;47.208;7.518;2023-04-22T18:11:48;15.70;99.90
38941;DHT22;43236;47.208;7.518;2023-04-22T18:14:35;17.00;99.90
38941;DHT22;43236;47.208;7.518;2023-04-22T18:17:22;17.60;99.90
38941;DHT22;43236;47.208;7.518;2023-04-22T18:20:10;15.70;99.90
38941;DHT22;43236;47.208;7.518;2023-04-22T18:22:59;15.30;99.90
38941;DHT22;43236;47.208;7.518;2023-04-22T18:25:46;15.80;99.90
38941;DHT22;43236;47.208;7.518;2023-04-22T18:28:34;16.40;99.90
38941;DHT22;43236;47.208;7.518;2023-04-22T18:34:08;18.20;99.90
38941;DHT22;43236;47.208;7.518;2023-04-22T18:36:59;17.40;99.90
38941;DHT22;43236;47.208;7.518;2023-04-22T18:39:47;16.20;99.90
38941;DHT22;43236;47.208;7.518;2023-04-22T18:42:34;15.30;99.90
38941;DHT22;43236;47.208;7.518;2023-04-22T18:45:21;18.40;99.90
38941;DHT22;43236;47.208;7.518;2023-04-22T18:48:08;16.30;99.90
38941;DHT22;43236;47.208;7.518;2023-04-22T18:50:55;16.20;99.90
38941;DHT22;43236;47.208;7.518;2023-04-22T18:53:43;18.90;99.90
38941;DHT22;43236;47.208;7.518;2023-04-22T18:56:30;19.00;99.90
38941;DHT22;43236;47.208;7.518;2023-04-22T18:59:17;15.60;99.90
38941;DHT22;43236;47.208;7.518;2023-04-22T19:02:04;17.50;99.90
38941;DHT22;43236;47.208;7.518;2023-04-22T19:04:51;16.90;99.90
38941;DHT22;43236;47.208;7.518;2023-04-22T19:07:39;15.50;99.90
38941;DHT22;43236;47.208;7.518;2023-04-22T19:10:27;16.90;99.90
38941;DHT22;43236;47.208;7.518;2023-04-22T19:13:15;16.00;99.90
38941;DHT22;43236;47.208;7.518;2023-04-22T19:16:03;15.90;99.90
38941;DHT22;43236;47.208;7.518;2023-04-22T19:18:50;17.60;99.90
38941;DHT22;43236;47.208;7.518;2023-04-22T19:21:37;15.60;99.90
38941;DHT22;43236;47.208;7.518;2023-04-22T19:24:24;16.60;99.90
38941;DHT22;43236;47.208;7.518;2023-04-22T19:27:18;14.50;99.90
38941;DHT22;43236;47.208;7.518;2023-04-22T19:32:52;17.10;99.90
38941;DHT22;43236;47.208;7.518;2023-04-22T19:35:39;17.90;99.90
38941;DHT22;43236;47.208;7.518;2023-04-22T19:38:26;16.60;99.90
38941;DHT22;43236;47.208;7.518;2023-04-22T19:41:13;13.80;99.90
38941;DHT22;43236;47.208;7.518;2023-04-22T19:44:01;13.30;99.90
38941;DHT22;43236;47.208;7.518;2023-04-22T19:46:49;17.20;99.90
38941;DHT22;43236;47.208;7.518;2023-04-22T19:49:36;14.20;99.90
38941;DHT22;43236;47.208;7.518;2023-04-22T19:52:25;13.30;99.90
38941;DHT22;43236;47.208;7.518;2023-04-22T19:55:12;15.60;99.90
38941;DHT22;43236;47.208;7.518;2023-04-22T19:57:59;15.00;99.90
38941;DHT22;43236;47.208;7.518;2023-04-22T20:00:48;17.60;99.90
38941;DHT22;43236;47.208;7.518;2023-04-22T20:03:36;17.40;99.90
38941;DHT22;43236;47.208;7.518;2023-04-22T20:06:23;14.90;99.90
38941;DHT22;43236;47.208;7.518;2023-04-22T20:09:10;15.50;99.90
38941;DHT22;43236;47.208;7.518;2023-04-22T20:11:57;14.70;99.90
38941;DHT22;43236;47.208;7.518;2023-04-22T20:14:44;15.50;99.90
38941;DHT22;43236;47.208;7.518;2023-04-22T20:17:33;15.00;99.90
38941;DHT22;43236;47.208;7.518;2023-04-22T20:23:10;15.70;99.90
38941;DHT22;43236;47.208;7.518;2023-04-22T20:28:47;15.10;99.90
38941;DHT22;43236;47.208;7.518;2023-04-22T20:31:36;13.20;99.90